createdAt,value
2017-11-11T00:00:47.343Z,4.33
2017-11-11T00:03:14.886Z,3.67
2017-11-11T00:05:42.384Z,3.50
2017-11-11T00:08:09.935Z,3.97
2017-11-11T00:10:37.432Z,3.47
2017-11-11T00:13:04.933Z,4.37
2017-11-11T00:15:32.473Z,4.10
2017-11-11T00:18:00.078Z,3.73
2017-11-11T00:20:27.606Z,3.80
2017-11-11T00:22:55.107Z,3.63
2017-11-11T00:25:23.052Z,4.77
2017-11-11T00:27:50.556Z,3.27
2017-11-11T00:30:18.111Z,3.47
2017-11-11T00:32:45.616Z,3.90
2017-11-11T00:35:13.117Z,4.20
2017-11-11T00:37:40.653Z,3.63
2017-11-11T00:40:08.156Z,3.87
2017-11-11T00:42:35.682Z,4.20
2017-11-11T00:45:03.944Z,3.93
2017-11-11T00:47:31.479Z,4.00
2017-11-11T00:49:58.984Z,4.43
2017-11-11T00:52:26.528Z,4.80
2017-11-11T00:54:54.032Z,3.90
2017-11-11T00:57:21.564Z,4.57
2017-11-11T00:59:49.069Z,4.20
2017-11-11T01:02:16.615Z,4.80
2017-11-11T01:04:44.112Z,3.97
2017-11-11T01:07:11.623Z,3.97
2017-11-11T01:09:39.954Z,4.83
2017-11-11T01:12:07.462Z,4.30
2017-11-11T01:14:35.004Z,4.40
2017-11-11T01:17:02.504Z,5.10
2017-11-11T01:19:30.044Z,4.30
2017-11-11T01:21:57.540Z,4.90
2017-11-11T01:24:25.071Z,4.17
2017-11-11T01:26:52.567Z,4.30
2017-11-11T01:29:20.100Z,4.80
2017-11-11T01:31:47.606Z,3.47
2017-11-11T01:34:15.154Z,4.80
2017-11-11T01:36:42.659Z,5.70
2017-11-11T01:39:10.167Z,4.93
2017-11-11T01:41:38.477Z,4.77
2017-11-11T01:44:05.976Z,5.37
2017-11-11T01:46:33.512Z,5.07
2017-11-11T01:49:01.019Z,4.53
2017-11-11T01:51:28.546Z,4.63
2017-11-11T01:53:56.048Z,5.40
2017-11-11T01:56:23.589Z,4.60
2017-11-11T01:58:51.855Z,4.40
2017-11-11T02:01:19.388Z,4.87
2017-11-11T02:03:46.889Z,4.60
2017-11-11T02:06:14.447Z,4.50
2017-11-11T02:08:41.947Z,3.83
2017-11-11T02:11:09.448Z,5.53
2017-11-11T02:13:36.981Z,4.10
2017-11-11T02:16:04.492Z,5.37
2017-11-11T02:18:32.024Z,5.27
2017-11-11T02:20:59.527Z,5.17
2017-11-11T02:23:27.072Z,4.87
2017-11-11T02:25:54.567Z,5.03
2017-11-11T02:28:22.112Z,5.00
2017-11-11T02:30:49.620Z,5.23
2017-11-11T02:33:17.180Z,4.93
2017-11-11T02:35:45.447Z,5.10
2017-11-11T02:38:12.943Z,4.40
2017-11-11T02:40:40.479Z,5.57
2017-11-11T02:43:07.975Z,4.30
2017-11-11T02:45:36.271Z,6.07
2017-11-11T02:48:04.541Z,5.10
2017-11-11T02:50:32.087Z,4.60
2017-11-11T02:52:59.578Z,4.80
2017-11-11T02:55:27.183Z,4.40
2017-11-11T02:57:54.670Z,4.70
2017-11-11T03:00:22.215Z,4.53
2017-11-11T03:02:49.703Z,4.47
2017-11-11T03:05:17.198Z,4.57
2017-11-11T03:07:44.722Z,4.50
2017-11-11T03:10:12.974Z,5.00
2017-11-11T03:12:40.509Z,4.90
2017-11-11T03:15:07.995Z,5.07
2017-11-11T03:17:35.529Z,4.47
2017-11-11T03:20:03.795Z,5.40
2017-11-11T03:22:31.321Z,5.20
2017-11-11T03:24:58.806Z,4.73
2017-11-11T03:27:26.331Z,5.60
2017-11-11T03:29:53.822Z,6.07
2017-11-11T03:32:21.358Z,5.10
2017-11-11T03:34:48.853Z,4.53
2017-11-11T03:37:17.106Z,5.50
2017-11-11T03:39:44.632Z,5.13
2017-11-11T03:42:12.126Z,4.97
2017-11-11T03:44:39.650Z,5.20
2017-11-11T03:47:07.909Z,4.17
2017-11-11T03:49:35.442Z,4.43
2017-11-11T03:52:02.931Z,4.90
2017-11-11T03:54:30.452Z,5.10
2017-11-11T03:56:57.977Z,4.47
2017-11-11T03:59:25.506Z,4.50
2017-11-11T04:01:53.770Z,4.03
2017-11-11T04:04:21.310Z,3.70
2017-11-11T04:06:48.803Z,3.90
2017-11-11T04:09:16.305Z,4.30
2017-11-11T04:11:44.609Z,5.43
2017-11-11T04:14:12.114Z,4.40
2017-11-11T04:16:39.642Z,4.77
2017-11-11T04:19:07.138Z,4.90
2017-11-11T04:21:34.671Z,4.30
2017-11-11T04:24:02.930Z,4.00
2017-11-11T04:26:30.456Z,3.90
2017-11-11T04:28:57.942Z,4.40
2017-11-11T04:31:25.492Z,4.43
2017-11-11T04:33:53.745Z,4.53
2017-11-11T04:36:21.239Z,4.80
2017-11-11T04:38:48.766Z,4.90
2017-11-11T04:41:16.286Z,3.80
2017-11-11T04:43:44.658Z,4.63
2017-11-11T04:46:12.161Z,5.00
2017-11-11T04:48:39.694Z,5.20
2017-11-11T04:51:07.187Z,5.17
2017-11-11T04:53:35.476Z,6.10
2017-11-11T04:56:03.738Z,5.87
2017-11-11T04:58:31.285Z,5.17
2017-11-11T05:00:58.771Z,4.80
2017-11-11T05:03:26.323Z,6.97
2017-11-11T05:05:54.392Z,5.50
2017-11-11T05:08:21.877Z,4.80
2017-11-11T05:10:50.218Z,4.90
2017-11-11T05:13:17.702Z,5.70
2017-11-11T05:15:45.246Z,4.83
2017-11-11T05:18:12.741Z,5.53
2017-11-11T05:20:41.035Z,4.43
2017-11-11T05:23:09.295Z,4.37
2017-11-11T05:25:36.815Z,3.23
2017-11-11T05:28:04.304Z,4.40
2017-11-11T05:30:31.826Z,5.13
2017-11-11T05:33:00.087Z,5.17
2017-11-11T05:35:27.638Z,4.40
2017-11-11T05:37:55.126Z,5.07
2017-11-11T05:40:22.610Z,5.03
2017-11-11T05:42:50.133Z,4.60
2017-11-11T05:45:17.629Z,4.23
2017-11-11T05:47:45.158Z,4.17
2017-11-11T05:50:13.418Z,4.77
2017-11-11T05:52:40.946Z,4.07
2017-11-11T05:55:08.446Z,4.90
2017-11-11T05:57:35.971Z,4.57
2017-11-11T06:00:03.462Z,3.90
2017-11-11T06:02:30.950Z,3.93
2017-11-11T06:04:58.477Z,3.87
2017-11-11T06:07:26.727Z,4.40
2017-11-11T06:09:54.254Z,4.33
2017-11-11T06:12:21.746Z,4.53
2017-11-11T06:14:49.269Z,4.73
2017-11-11T06:17:16.759Z,3.90
2017-11-11T06:19:44.292Z,3.60
2017-11-11T06:22:11.778Z,4.57
2017-11-11T06:24:39.306Z,3.70
2017-11-11T06:27:06.798Z,4.70
2017-11-11T06:29:34.330Z,3.93
2017-11-11T06:32:02.579Z,4.40
2017-11-11T06:34:30.127Z,3.70
2017-11-11T06:36:57.621Z,4.70
2017-11-11T06:39:25.110Z,3.93
2017-11-11T06:41:53.407Z,3.60
2017-11-11T06:44:20.903Z,3.67
2017-11-11T06:46:48.425Z,4.57
2017-11-11T06:49:16.685Z,3.57
2017-11-11T06:51:44.201Z,4.10
2017-11-11T06:54:12.457Z,3.27
2017-11-11T06:56:39.994Z,3.30
2017-11-11T06:59:07.491Z,3.43
2017-11-11T07:01:35.014Z,2.90
2017-11-11T07:04:02.502Z,4.17
2017-11-11T07:06:30.050Z,3.13
2017-11-11T07:08:58.306Z,3.40
2017-11-11T07:11:25.807Z,3.57
2017-11-11T07:13:54.098Z,3.90
2017-11-11T07:16:22.352Z,4.40
2017-11-11T07:18:49.882Z,3.10
2017-11-11T07:21:17.377Z,3.57
2017-11-11T07:23:44.902Z,4.30
2017-11-11T07:26:12.393Z,2.80
2017-11-11T07:28:39.910Z,2.33
2017-11-11T07:31:07.395Z,2.83
2017-11-11T07:33:34.920Z,3.40
2017-11-11T07:36:02.421Z,3.40
2017-11-11T07:38:30.294Z,2.97
2017-11-11T07:40:57.781Z,2.87
2017-11-11T07:43:25.270Z,2.70
2017-11-11T07:45:53.562Z,2.20
2017-11-11T07:48:21.814Z,2.87
2017-11-11T07:50:49.330Z,2.43
2017-11-11T07:53:17.590Z,2.40
2017-11-11T07:55:45.113Z,2.50
2017-11-11T07:58:12.605Z,2.20
2017-11-11T08:00:40.126Z,2.93
2017-11-11T08:03:08.378Z,2.43
2017-11-11T08:05:35.915Z,1.90
2017-11-11T08:08:04.172Z,2.50
2017-11-11T08:10:32.428Z,2.47
2017-11-11T08:12:59.954Z,2.10
2017-11-11T08:15:27.438Z,2.50
2017-11-11T08:17:55.002Z,2.50
2017-11-11T08:20:22.490Z,2.53
2017-11-11T08:22:50.014Z,2.33
2017-11-11T08:25:18.268Z,2.47
2017-11-11T08:27:45.807Z,3.30
2017-11-11T08:30:13.306Z,2.37
2017-11-11T08:32:40.789Z,3.10
2017-11-11T08:35:08.310Z,2.80
2017-11-11T08:37:35.806Z,4.23
2017-11-11T08:40:03.345Z,4.27
2017-11-11T08:42:31.599Z,3.83
2017-11-11T08:44:59.138Z,2.93
2017-11-11T08:47:26.630Z,2.97
2017-11-11T08:49:54.115Z,2.90
2017-11-11T08:52:21.642Z,4.07
2017-11-11T08:54:49.136Z,2.77
2017-11-11T08:57:16.657Z,2.77
2017-11-11T08:59:44.144Z,3.33
2017-11-11T09:02:11.660Z,3.20
2017-11-11T09:04:39.142Z,3.10
2017-11-11T09:07:06.662Z,2.97
2017-11-11T09:09:34.154Z,2.73
2017-11-11T09:12:01.840Z,2.70
2017-11-11T09:14:29.610Z,2.20
2017-11-11T09:16:57.101Z,2.80
2017-11-11T09:19:24.646Z,2.53
2017-11-11T09:21:52.130Z,2.70
2017-11-11T09:24:19.656Z,1.87
2017-11-11T09:26:47.144Z,2.70
2017-11-11T09:29:14.670Z,2.80
2017-11-11T09:31:42.153Z,2.20
2017-11-11T09:34:10.450Z,2.10
2017-11-11T09:36:38.697Z,2.20
2017-11-11T09:39:06.227Z,2.70
2017-11-11T09:41:33.715Z,2.73
2017-11-11T09:44:01.201Z,2.40
2017-11-11T09:46:28.726Z,3.37
2017-11-11T09:48:56.209Z,2.90
2017-11-11T09:51:23.734Z,3.77
2017-11-11T09:53:51.214Z,3.30
2017-11-11T09:56:18.742Z,3.00
2017-11-11T09:58:46.236Z,3.00
2017-11-11T10:01:13.756Z,3.20
2017-11-11T10:03:42.007Z,4.20
2017-11-11T10:06:09.567Z,3.53
2017-11-11T10:08:37.058Z,3.40
2017-11-11T10:11:04.553Z,3.83
2017-11-11T10:13:32.840Z,3.50
2017-11-11T10:16:01.093Z,2.60
2017-11-11T10:18:28.631Z,4.33
2017-11-11T10:20:56.122Z,3.77
2017-11-11T10:23:23.646Z,4.03
2017-11-11T10:25:51.997Z,4.17
2017-11-11T10:28:19.528Z,3.50
2017-11-11T10:30:47.026Z,4.40
2017-11-11T10:33:14.550Z,3.63
2017-11-11T10:35:42.072Z,4.30
2017-11-11T10:38:09.615Z,6.33
2017-11-11T10:40:37.106Z,5.17
2017-11-11T10:43:05.366Z,4.07
2017-11-11T10:45:32.895Z,4.63
2017-11-11T10:48:00.395Z,3.60
2017-11-11T10:50:28.687Z,3.97
2017-11-11T10:52:56.185Z,3.10
2017-11-11T10:55:23.733Z,3.33
2017-11-11T10:57:52.006Z,4.30
2017-11-11T11:00:19.545Z,3.23
2017-11-11T11:02:47.041Z,3.13
2017-11-11T11:05:14.563Z,3.30
2017-11-11T11:07:42.062Z,4.40
2017-11-11T11:10:09.563Z,4.13
2017-11-11T11:12:37.870Z,4.50
2017-11-11T11:15:06.139Z,4.20
2017-11-11T11:17:33.663Z,2.77
2017-11-11T11:20:01.156Z,2.90
2017-11-11T11:22:28.690Z,3.50
2017-11-11T11:24:56.197Z,3.73
2017-11-11T11:27:23.727Z,2.90
2017-11-11T11:29:51.226Z,2.70
2017-11-11T11:32:18.755Z,3.00
2017-11-11T11:34:47.007Z,3.33
2017-11-11T11:37:14.687Z,3.27
2017-11-11T11:39:42.186Z,3.37
2017-11-11T11:42:10.453Z,2.83
2017-11-11T11:44:38.283Z,3.13
2017-11-11T11:47:05.765Z,2.40
2017-11-11T11:49:33.297Z,2.53
2017-11-11T11:52:00.786Z,3.10
2017-11-11T11:54:28.306Z,4.20
2017-11-11T11:56:55.799Z,3.10
2017-11-11T11:59:23.319Z,3.07
2017-11-11T12:01:50.812Z,2.57
2017-11-11T12:04:18.307Z,3.20
2017-11-11T12:06:45.919Z,2.93
2017-11-11T12:09:13.406Z,3.40
2017-11-11T12:11:40.930Z,3.13
2017-11-11T12:14:08.423Z,3.37
2017-11-11T12:16:36.738Z,3.73
2017-11-11T12:19:04.222Z,2.97
2017-11-11T12:21:31.710Z,3.50
2017-11-11T12:23:59.230Z,2.90
2017-11-11T12:26:26.718Z,5.23
2017-11-11T12:28:54.251Z,3.60
2017-11-11T12:31:22.507Z,4.10
2017-11-11T12:33:50.030Z,4.47
2017-11-11T12:36:18.286Z,3.67
2017-11-11T12:38:45.812Z,4.00
2017-11-11T12:41:13.306Z,3.50
2017-11-11T12:43:40.864Z,3.23
2017-11-11T12:46:08.355Z,2.73
2017-11-11T12:48:35.880Z,2.83
2017-11-11T12:51:03.366Z,2.80
2017-11-11T12:53:30.907Z,2.90
2017-11-11T12:55:59.163Z,2.70
2017-11-11T12:58:26.647Z,3.43
2017-11-11T13:00:54.173Z,3.27
2017-11-11T13:03:22.534Z,3.50
2017-11-11T13:05:50.827Z,3.43
2017-11-11T13:08:19.074Z,3.80
2017-11-11T13:10:46.595Z,3.17
2017-11-11T13:13:14.079Z,3.30
2017-11-11T13:15:41.614Z,3.20
2017-11-11T13:18:09.095Z,3.20
2017-11-11T13:20:37.370Z,2.70
2017-11-11T13:23:04.890Z,2.70
2017-11-11T13:25:32.447Z,3.23
2017-11-11T13:27:59.973Z,3.57
2017-11-11T13:30:27.462Z,3.03
2017-11-11T13:32:55.743Z,5.10
2017-11-11T13:35:23.232Z,3.27
2017-11-11T13:37:51.515Z,3.53
2017-11-11T13:40:19.015Z,3.50
2017-11-11T13:42:46.540Z,3.10
2017-11-11T13:45:14.030Z,3.20
2017-11-11T13:47:42.322Z,3.03
2017-11-11T13:50:10.576Z,3.43
2017-11-11T13:52:38.113Z,3.00
2017-11-11T13:55:05.630Z,4.00
2017-11-11T13:57:33.122Z,3.77
2017-11-11T14:00:01.410Z,4.90
2017-11-11T14:02:29.659Z,4.40
2017-11-11T14:04:57.187Z,4.43
2017-11-11T14:07:24.674Z,3.97
2017-11-11T14:09:52.199Z,3.50
2017-11-11T14:12:20.307Z,3.77
2017-11-11T14:14:48.615Z,3.90
2017-11-11T14:17:16.098Z,3.80
2017-11-11T14:19:43.589Z,4.03
2017-11-11T14:22:11.126Z,5.50
2017-11-11T14:24:38.614Z,6.27
2017-11-11T14:27:06.141Z,5.20
2017-11-11T14:29:34.397Z,4.73
2017-11-11T14:32:01.930Z,5.87
2017-11-11T14:34:29.414Z,5.97
2017-11-11T14:36:56.959Z,5.93
2017-11-11T14:39:24.447Z,5.60
2017-11-11T14:41:51.975Z,7.57
2017-11-11T14:44:19.497Z,7.70
2017-11-11T14:46:47.343Z,5.60
2017-11-11T14:49:15.601Z,6.00
2017-11-11T14:51:43.094Z,6.27
2017-11-11T14:54:10.618Z,7.83
2017-11-11T14:56:38.109Z,9.10
2017-11-11T14:59:05.638Z,9.30
2017-11-11T15:01:33.213Z,9.17
2017-11-11T15:04:00.741Z,9.17
2017-11-11T15:06:28.238Z,9.77
2017-11-11T15:08:56.551Z,9.60
2017-11-11T15:11:24.045Z,9.77
2017-11-11T15:13:51.550Z,9.50
2017-11-11T15:16:19.083Z,9.70
2017-11-11T15:18:46.587Z,10.60
2017-11-11T15:21:14.119Z,11.77
2017-11-11T15:23:41.614Z,13.20
2017-11-11T15:26:09.138Z,12.80
2017-11-11T15:28:36.630Z,12.30
2017-11-11T15:31:05.497Z,12.37
2017-11-11T15:33:33.766Z,12.87
2017-11-11T15:36:01.313Z,14.70
2017-11-11T15:38:28.807Z,14.47
2017-11-11T15:40:56.307Z,13.20
2017-11-11T15:43:23.854Z,13.07
2017-11-11T15:45:53.111Z,12.60
2017-11-11T15:48:20.642Z,12.47
2017-11-11T15:50:48.208Z,12.10
2017-11-11T15:53:15.746Z,11.00
2017-11-11T15:55:43.237Z,13.10
2017-11-11T15:58:10.767Z,12.53
2017-11-11T16:00:38.305Z,12.83
2017-11-11T16:03:06.730Z,12.80
2017-11-11T16:05:34.222Z,13.33
2017-11-11T16:08:01.749Z,12.27
2017-11-11T16:10:29.256Z,12.00
2017-11-11T16:12:56.806Z,14.03
2017-11-11T16:15:25.057Z,16.50
2017-11-11T16:17:52.557Z,14.20
2017-11-11T16:20:20.852Z,13.20
2017-11-11T16:22:49.110Z,14.63
2017-11-11T16:25:16.631Z,14.50
2017-11-11T16:27:44.121Z,12.67
2017-11-11T16:30:11.666Z,14.03
2017-11-11T16:32:39.162Z,13.80
2017-11-11T16:35:06.711Z,13.10
2017-11-11T16:37:34.214Z,14.93
2017-11-11T16:40:01.766Z,14.03
2017-11-11T16:42:29.268Z,14.27
2017-11-11T16:44:56.758Z,24.60
2017-11-11T16:47:24.295Z,17.87
2017-11-11T16:49:51.803Z,17.63
2017-11-11T16:52:19.353Z,17.80
2017-11-11T16:54:46.858Z,18.20
2017-11-11T16:57:14.394Z,17.23
2017-11-11T16:59:41.902Z,17.80
2017-11-11T17:02:10.210Z,18.37
2017-11-11T17:04:37.706Z,15.97
2017-11-11T17:07:05.195Z,17.43
2017-11-11T17:09:32.721Z,18.03
2017-11-11T17:12:00.219Z,16.33
2017-11-11T17:14:27.775Z,16.27
2017-11-11T17:16:55.274Z,17.57
2017-11-11T17:19:22.809Z,17.97
2017-11-11T17:21:50.310Z,18.20
2017-11-11T17:24:17.850Z,16.80
2017-11-11T17:26:46.105Z,18.47
2017-11-11T17:29:13.638Z,18.23
2017-11-11T17:31:41.150Z,20.33
2017-11-11T17:34:08.698Z,20.13
2017-11-11T17:36:36.200Z,18.03
2017-11-11T17:39:03.695Z,18.70
2017-11-11T17:41:32.003Z,19.30
2017-11-11T17:43:59.501Z,18.30
2017-11-11T17:46:27.036Z,18.50
2017-11-11T17:48:54.538Z,18.77
2017-11-11T17:51:22.850Z,18.67
2017-11-11T17:53:50.382Z,18.97
2017-11-11T17:56:18.073Z,19.90
2017-11-11T17:58:46.348Z,18.77
2017-11-11T18:01:13.846Z,19.93
2017-11-11T18:03:41.375Z,19.43
2017-11-11T18:06:08.876Z,21.10
2017-11-11T18:08:36.407Z,23.53
2017-11-11T18:11:03.908Z,21.50
2017-11-11T18:13:31.437Z,23.70
2017-11-11T18:15:58.936Z,23.47
2017-11-11T18:18:26.471Z,25.20
2017-11-11T18:20:53.975Z,26.20
2017-11-11T18:23:21.526Z,26.93
2017-11-11T18:25:49.783Z,25.53
2017-11-11T18:28:17.277Z,26.97
2017-11-11T18:30:44.809Z,24.53
2017-11-11T18:33:12.307Z,26.93
2017-11-11T18:35:39.843Z,24.30
2017-11-11T18:38:07.353Z,25.40
2017-11-11T18:40:34.884Z,22.83
2017-11-11T18:43:02.378Z,22.60
2017-11-11T18:45:29.906Z,24.37
2017-11-11T18:47:57.406Z,24.90
2017-11-11T18:50:24.935Z,27.17
2017-11-11T18:52:53.198Z,26.57
2017-11-11T18:55:20.741Z,24.73
2017-11-11T18:57:48.234Z,25.60
2017-11-11T19:00:15.731Z,27.40
2017-11-11T19:02:44.033Z,27.43
2017-11-11T19:05:11.526Z,25.00
2017-11-11T19:07:39.063Z,25.30
2017-11-11T19:10:07.326Z,25.43
2017-11-11T19:12:34.850Z,27.00
2017-11-11T19:15:02.359Z,26.60
2017-11-11T19:17:29.893Z,26.03
2017-11-11T19:19:57.382Z,27.53
2017-11-11T19:22:24.926Z,26.70
2017-11-11T19:24:53.190Z,26.93
2017-11-11T19:27:21.482Z,29.27
2017-11-11T19:29:49.858Z,28.47
2017-11-11T19:32:17.398Z,28.00
2017-11-11T19:34:44.947Z,27.90
2017-11-11T19:37:12.438Z,29.53
2017-11-11T19:39:39.996Z,28.40
2017-11-11T19:42:07.497Z,29.00
2017-11-11T19:44:35.042Z,40.00
2017-11-11T19:47:02.596Z,50.60
2017-11-11T19:49:30.351Z,38.83
2017-11-11T19:51:57.927Z,30.73
2017-11-11T19:54:25.430Z,30.10
2017-11-11T19:56:52.972Z,29.60
2017-11-11T19:59:20.490Z,29.20
2017-11-11T20:01:48.045Z,27.70
2017-11-11T20:04:15.563Z,28.97
2017-11-11T20:06:43.271Z,28.93
2017-11-11T20:09:10.959Z,28.87
2017-11-11T20:11:39.272Z,29.07
2017-11-11T20:14:06.872Z,28.00
2017-11-11T20:16:34.431Z,29.20
2017-11-11T20:19:01.923Z,29.37
2017-11-11T20:21:29.413Z,30.17
2017-11-11T20:23:56.950Z,27.77
2017-11-11T20:26:24.446Z,28.43
2017-11-11T20:28:51.998Z,30.77
2017-11-11T20:31:19.505Z,30.07
2017-11-11T20:33:47.039Z,29.20
2017-11-11T20:36:14.526Z,29.10
2017-11-11T20:38:42.082Z,30.70
2017-11-11T20:41:09.724Z,31.90
2017-11-11T20:43:37.401Z,30.10
2017-11-11T20:46:04.931Z,27.23
2017-11-11T20:48:32.478Z,31.40
2017-11-11T20:50:59.984Z,29.33
2017-11-11T20:53:27.688Z,30.53
2017-11-11T20:55:55.204Z,35.90
2017-11-11T20:58:22.695Z,29.50
2017-11-11T21:00:50.231Z,29.97
2017-11-11T21:03:17.733Z,30.47
2017-11-11T21:05:45.311Z,28.43
2017-11-11T21:08:12.810Z,31.17
2017-11-11T21:10:41.109Z,29.80
2017-11-11T21:13:08.606Z,29.50
2017-11-11T21:15:36.146Z,29.07
2017-11-11T21:18:03.634Z,29.90
2017-11-11T21:20:31.182Z,29.17
2017-11-11T21:22:59.466Z,27.90
2017-11-11T21:25:27.725Z,28.03
2017-11-11T21:27:55.266Z,24.43
2017-11-11T21:30:22.763Z,26.10
2017-11-11T21:32:50.295Z,25.17
2017-11-11T21:35:17.796Z,22.60
2017-11-11T21:37:45.347Z,22.80
2017-11-11T21:40:12.846Z,23.27
2017-11-11T21:42:40.383Z,21.80
2017-11-11T21:45:07.879Z,20.60
2017-11-11T21:47:35.426Z,21.67
2017-11-11T21:50:02.923Z,21.47
2017-11-11T21:52:30.410Z,19.80
2017-11-11T21:54:57.938Z,22.53
2017-11-11T21:57:25.442Z,20.97
2017-11-11T21:59:53.123Z,20.30
2017-11-11T22:02:20.823Z,19.07
2017-11-11T22:04:48.352Z,13.50
2017-11-11T22:07:15.843Z,13.17
2017-11-11T22:09:43.386Z,13.50
2017-11-11T22:12:10.925Z,15.20
2017-11-11T22:14:39.182Z,13.50
2017-11-11T22:17:06.710Z,17.00
2017-11-11T22:19:34.206Z,19.97
2017-11-11T22:22:01.731Z,21.63
2017-11-11T22:24:29.997Z,22.00
2017-11-11T22:26:57.526Z,24.27
2017-11-11T22:29:25.017Z,23.97
2017-11-11T22:31:52.665Z,25.67
2017-11-11T22:34:20.170Z,25.07
2017-11-11T22:36:47.719Z,25.27
2017-11-11T22:39:15.206Z,25.20
2017-11-11T22:41:42.693Z,25.20
2017-11-11T22:44:10.224Z,26.20
2017-11-11T22:46:37.718Z,24.67
2017-11-11T22:49:05.247Z,23.03
2017-11-11T22:51:32.746Z,25.70
2017-11-11T22:54:00.266Z,26.07
2017-11-11T22:56:28.521Z,25.90
2017-11-11T22:58:56.047Z,27.67
2017-11-11T23:01:23.545Z,26.87
2017-11-11T23:03:51.086Z,26.40
2017-11-11T23:06:18.610Z,25.60
2017-11-11T23:08:46.108Z,27.00
2017-11-11T23:11:14.407Z,27.90
2017-11-11T23:13:42.670Z,28.40
2017-11-11T23:16:10.208Z,26.93
2017-11-11T23:18:37.698Z,30.80
2017-11-11T23:21:05.227Z,27.60
2017-11-11T23:23:32.718Z,28.13
2017-11-11T23:26:00.252Z,29.50
2017-11-11T23:28:28.509Z,31.10
2017-11-11T23:30:56.057Z,31.40
2017-11-11T23:33:23.571Z,29.23
2017-11-11T23:35:51.066Z,30.13
2017-11-11T23:38:19.353Z,30.10
2017-11-11T23:40:46.854Z,31.67
2017-11-11T23:43:14.442Z,35.47
2017-11-11T23:45:41.962Z,31.40
2017-11-11T23:48:10.254Z,30.33
2017-11-11T23:50:38.510Z,31.37
2017-11-11T23:53:06.059Z,29.30
2017-11-11T23:55:33.579Z,28.07
2017-11-11T23:58:01.842Z,30.23
